sensor_id;sensor_type;location;lat;lon;timestamp;temperature;humidity
30851;DHT22;17567;48.382;9.102;2022-12-18T00:03:45;-7.90;99.90
30851;DHT22;17567;48.382;9.102;2022-12-18T00:08:46;-8.00;99.90
30851;DHT22;17567;48.382;9.102;2022-12-18T00:13:48;-8.00;99.90
30851;DHT22;17567;48.382;9.102;2022-12-18T00:18:50;-8.00;99.90
30851;DHT22;17567;48.382;9.102;2022-12-18T00:23:52;-8.00;99.90
30851;DHT22;17567;48.382;9.102;2022-12-18T00:28:53;-8.00;99.90
30851;DHT22;17567;48.382;9.102;2022-12-18T00:33:55;-8.20;99.90
30851;DHT22;17567;48.382;9.102;2022-12-18T00:38:57;-8.30;99.90
30851;DHT22;17567;48.382;9.102;2022-12-18T00:43:58;-8.20;99.90
30851;DHT22;17567;48.382;9.102;2022-12-18T00:48:59;-8.30;99.90
30851;DHT22;17567;48.382;9.102;2022-12-18T00:54:00;-8.20;99.90
30851;DHT22;17567;48.382;9.102;2022-12-18T00:59:00;-8.30;99.90
30851;DHT22;17567;48.382;9.102;2022-12-18T01:04:02;-8.40;99.90
30851;DHT22;17567;48.382;9.102;2022-12-18T01:09:03;-8.20;99.90
30851;DHT22;17567;48.382;9.102;2022-12-18T01:14:04;-8.20;99.90
30851;DHT22;17567;48.382;9.102;2022-12-18T01:19:05;-8.10;99.90
30851;DHT22;17567;48.382;9.102;2022-12-18T01:24:06;-8.00;99.90
30851;DHT22;17567;48.382;9.102;2022-12-18T01:29:07;-7.90;99.90
30851;DHT22;17567;48.382;9.102;2022-12-18T01:34:09;-7.90;99.90
30851;DHT22;17567;48.382;9.102;2022-12-18T01:39:11;-7.90;99.90
30851;DHT22;17567;48.382;9.102;2022-12-18T01:49:51;-7.80;99.90
30851;DHT22;17567;48.382;9.102;2022-12-18T01:54:52;-7.60;99.90
30851;DHT22;17567;48.382;9.102;2022-12-18T01:59:57;-7.60;99.90
30851;DHT22;17567;48.382;9.102;2022-12-18T02:05:00;-7.50;99.90
30851;DHT22;17567;48.382;9.102;2022-12-18T02:15:36;-7.30;99.90
30851;DHT22;17567;48.382;9.102;2022-12-18T02:20:52;-7.10;99.90
30851;DHT22;17567;48.382;9.102;2022-12-18T02:26:19;-7.00;99.90
30851;DHT22;17567;48.382;9.102;2022-12-18T02:31:27;-6.90;99.90
30851;DHT22;17567;48.382;9.102;2022-12-18T02:36:29;-6.80;99.90
30851;DHT22;17567;48.382;9.102;2022-12-18T02:41:32;-6.70;99.90
30851;DHT22;17567;48.382;9.102;2022-12-18T02:46:41;-6.60;99.90
30851;DHT22;17567;48.382;9.102;2022-12-18T02:51:53;-6.60;99.90
30851;DHT22;17567;48.382;9.102;2022-12-18T02:56:57;-6.60;99.90
30851;DHT22;17567;48.382;9.102;2022-12-18T03:02:19;-6.60;99.90
30851;DHT22;17567;48.382;9.102;2022-12-18T03:07:30;-6.60;99.90
30851;DHT22;17567;48.382;9.102;2022-12-18T03:12:42;-6.60;99.90
30851;DHT22;17567;48.382;9.102;2022-12-18T03:17:49;-6.60;99.90
30851;DHT22;17567;48.382;9.102;2022-12-18T03:22:54;-6.50;99.90
30851;DHT22;17567;48.382;9.102;2022-12-18T03:27:59;-6.60;99.90
30851;DHT22;17567;48.382;9.102;2022-12-18T03:38:20;-6.50;99.90
30851;DHT22;17567;48.382;9.102;2022-12-18T03:49:02;-6.40;99.90
30851;DHT22;17567;48.382;9.102;2022-12-18T03:54:08;-6.40;99.90
30851;DHT22;17567;48.382;9.102;2022-12-18T03:59:10;-6.40;99.90
30851;DHT22;17567;48.382;9.102;2022-12-18T04:04:12;-6.50;99.90
30851;DHT22;17567;48.382;9.102;2022-12-18T04:09:14;-6.50;99.90
30851;DHT22;17567;48.382;9.102;2022-12-18T04:14:15;-6.50;99.90
30851;DHT22;17567;48.382;9.102;2022-12-18T04:19:16;-6.60;99.90
30851;DHT22;17567;48.382;9.102;2022-12-18T04:24:16;-6.60;99.90
30851;DHT22;17567;48.382;9.102;2022-12-18T04:29:17;-6.60;99.90
30851;DHT22;17567;48.382;9.102;2022-12-18T04:34:18;-6.50;99.90
30851;DHT22;17567;48.382;9.102;2022-12-18T04:39:18;-6.50;99.90
30851;DHT22;17567;48.382;9.102;2022-12-18T04:44:19;-6.60;99.90
30851;DHT22;17567;48.382;9.102;2022-12-18T04:49:19;-6.40;99.90
30851;DHT22;17567;48.382;9.102;2022-12-18T04:54:20;-6.50;99.90
30851;DHT22;17567;48.382;9.102;2022-12-18T04:59:21;-6.50;99.90
30851;DHT22;17567;48.382;9.102;2022-12-18T05:04:22;-6.60;99.90
30851;DHT22;17567;48.382;9.102;2022-12-18T05:09:23;-6.70;99.90
30851;DHT22;17567;48.382;9.102;2022-12-18T05:14:23;-6.70;99.90
30851;DHT22;17567;48.382;9.102;2022-12-18T05:19:24;-6.80;99.90
30851;DHT22;17567;48.382;9.102;2022-12-18T05:24:25;-6.60;99.90
30851;DHT22;17567;48.382;9.102;2022-12-18T05:29:26;-6.60;99.90
30851;DHT22;17567;48.382;9.102;2022-12-18T05:34:26;-6.60;99.90
30851;DHT22;17567;48.382;9.102;2022-12-18T05:39:27;-6.60;99.90
30851;DHT22;17567;48.382;9.102;2022-12-18T05:44:28;-6.60;99.90
30851;DHT22;17567;48.382;9.102;2022-12-18T05:49:28;-6.60;99.90
30851;DHT22;17567;48.382;9.102;2022-12-18T05:54:29;-6.70;99.90
30851;DHT22;17567;48.382;9.102;2022-12-18T05:59:30;-6.60;99.90
30851;DHT22;17567;48.382;9.102;2022-12-18T06:04:31;-6.70;99.90
30851;DHT22;17567;48.382;9.102;2022-12-18T06:09:32;-6.60;99.90
30851;DHT22;17567;48.382;9.102;2022-12-18T06:14:32;-6.60;99.90
30851;DHT22;17567;48.382;9.102;2022-12-18T06:19:33;-6.40;99.90
30851;DHT22;17567;48.382;9.102;2022-12-18T06:24:33;-6.40;99.90
30851;DHT22;17567;48.382;9.102;2022-12-18T06:29:34;-6.40;99.90
30851;DHT22;17567;48.382;9.102;2022-12-18T06:34:37;-6.30;99.90
30851;DHT22;17567;48.382;9.102;2022-12-18T06:39:38;-6.40;99.90
30851;DHT22;17567;48.382;9.102;2022-12-18T06:44:38;-6.40;99.90
30851;DHT22;17567;48.382;9.102;2022-12-18T06:49:39;-6.30;99.90
30851;DHT22;17567;48.382;9.102;2022-12-18T06:54:40;-6.40;99.90
30851;DHT22;17567;48.382;9.102;2022-12-18T06:59:40;-6.40;99.90
30851;DHT22;17567;48.382;9.102;2022-12-18T07:04:41;-6.30;99.90
30851;DHT22;17567;48.382;9.102;2022-12-18T07:09:41;-6.30;99.90
30851;DHT22;17567;48.382;9.102;2022-12-18T07:14:42;-6.40;99.90
30851;DHT22;17567;48.382;9.102;2022-12-18T07:19:44;-6.30;99.90
30851;DHT22;17567;48.382;9.102;2022-12-18T07:24:45;-6.40;99.90
30851;DHT22;17567;48.382;9.102;2022-12-18T07:29:46;-6.40;99.90
30851;DHT22;17567;48.382;9.102;2022-12-18T07:34:46;-6.40;99.90
30851;DHT22;17567;48.382;9.102;2022-12-18T07:39:47;-6.30;99.90
30851;DHT22;17567;48.382;9.102;2022-12-18T07:44:48;-6.40;99.90
30851;DHT22;17567;48.382;9.102;2022-12-18T07:49:48;-6.20;99.90
30851;DHT22;17567;48.382;9.102;2022-12-18T07:54:49;-6.30;99.90
30851;DHT22;17567;48.382;9.102;2022-12-18T07:59:50;-6.40;99.90
30851;DHT22;17567;48.382;9.102;2022-12-18T08:04:50;-6.30;99.90
30851;DHT22;17567;48.382;9.102;2022-12-18T08:09:51;-6.30;99.90
30851;DHT22;17567;48.382;9.102;2022-12-18T08:14:52;-6.30;99.90
30851;DHT22;17567;48.382;9.102;2022-12-18T08:19:52;-6.20;99.90
30851;DHT22;17567;48.382;9.102;2022-12-18T08:24:53;-6.20;99.90
30851;DHT22;17567;48.382;9.102;2022-12-18T08:29:54;-6.20;99.90
30851;DHT22;17567;48.382;9.102;2022-12-18T08:34:54;-6.10;99.90
30851;DHT22;17567;48.382;9.102;2022-12-18T08:39:55;-6.10;99.90
30851;DHT22;17567;48.382;9.102;2022-12-18T08:44:55;-6.10;99.90
30851;DHT22;17567;48.382;9.102;2022-12-18T08:49:56;-5.90;99.90
30851;DHT22;17567;48.382;9.102;2022-12-18T08:54:57;-5.70;99.90
30851;DHT22;17567;48.382;9.102;2022-12-18T08:59:57;-5.50;99.90
30851;DHT22;17567;48.382;9.102;2022-12-18T09:04:58;-5.30;99.90
30851;DHT22;17567;48.382;9.102;2022-12-18T09:10:00;-5.30;99.90
30851;DHT22;17567;48.382;9.102;2022-12-18T09:15:00;-5.20;99.90
30851;DHT22;17567;48.382;9.102;2022-12-18T09:20:01;-5.10;99.90
30851;DHT22;17567;48.382;9.102;2022-12-18T09:25:02;-4.90;99.90
30851;DHT22;17567;48.382;9.102;2022-12-18T09:30:03;-4.80;99.90
30851;DHT22;17567;48.382;9.102;2022-12-18T09:35:04;-4.70;99.90
30851;DHT22;17567;48.382;9.102;2022-12-18T09:40:05;-4.60;99.90
30851;DHT22;17567;48.382;9.102;2022-12-18T09:45:12;-4.50;99.90
30851;DHT22;17567;48.382;9.102;2022-12-18T09:50:28;-4.20;99.90
30851;DHT22;17567;48.382;9.102;2022-12-18T09:55:44;-4.10;99.90
30851;DHT22;17567;48.382;9.102;2022-12-18T10:00:46;-4.00;99.90
30851;DHT22;17567;48.382;9.102;2022-12-18T10:06:04;-3.80;99.90
30851;DHT22;17567;48.382;9.102;2022-12-18T10:16:59;-3.80;99.90
30851;DHT22;17567;48.382;9.102;2022-12-18T10:27:18;-3.70;99.90
30851;DHT22;17567;48.382;9.102;2022-12-18T10:32:30;-3.70;99.90
30851;DHT22;17567;48.382;9.102;2022-12-18T10:37:30;-3.80;99.90
30851;DHT22;17567;48.382;9.102;2022-12-18T10:42:31;-3.60;99.90
30851;DHT22;17567;48.382;9.102;2022-12-18T10:47:33;-3.40;99.90
30851;DHT22;17567;48.382;9.102;2022-12-18T10:52:34;-3.30;99.90
30851;DHT22;17567;48.382;9.102;2022-12-18T10:57:38;-3.20;99.90
30851;DHT22;17567;48.382;9.102;2022-12-18T11:02:39;-3.00;99.90
30851;DHT22;17567;48.382;9.102;2022-12-18T11:07:49;-2.80;99.90
30851;DHT22;17567;48.382;9.102;2022-12-18T11:12:50;-2.60;99.90
